createdAt,value
2019-03-28T00:01:19.901Z,14.60
2019-03-28T00:03:48.367Z,13.32
2019-03-28T00:06:16.840Z,13.05
2019-03-28T00:08:45.311Z,14.00
2019-03-28T00:11:13.773Z,14.60
2019-03-28T00:13:42.232Z,14.55
2019-03-28T00:16:10.713Z,15.32
2019-03-28T00:18:39.183Z,14.28
2019-03-28T00:21:07.641Z,16.10
2019-03-28T00:23:40.767Z,15.85
2019-03-28T00:26:09.231Z,15.55
2019-03-28T00:28:37.698Z,16.50
2019-03-28T00:31:06.149Z,15.72
2019-03-28T00:33:34.620Z,16.35
2019-03-28T00:36:03.084Z,16.12
2019-03-28T00:38:31.709Z,16.05
2019-03-28T00:41:00.178Z,15.88
2019-03-28T00:43:28.641Z,17.12
2019-03-28T00:45:57.673Z,17.23
2019-03-28T00:48:27.677Z,16.67
2019-03-28T00:50:56.187Z,16.20
2019-03-28T00:53:24.673Z,17.52
2019-03-28T00:55:53.149Z,17.40
2019-03-28T00:58:21.611Z,18.85
2019-03-28T01:00:51.995Z,17.37
2019-03-28T01:03:20.438Z,18.02
2019-03-28T01:05:48.905Z,16.60
2019-03-28T01:08:17.448Z,20.70
2019-03-28T01:10:45.919Z,18.77
2019-03-28T01:13:14.381Z,19.75
2019-03-28T01:15:42.849Z,18.32
2019-03-28T01:18:12.489Z,20.12
2019-03-28T01:20:40.954Z,19.20
2019-03-28T01:23:09.421Z,19.50
2019-03-28T01:25:37.895Z,19.10
2019-03-28T01:28:06.363Z,19.95
2019-03-28T01:30:34.829Z,19.00
2019-03-28T01:33:03.299Z,19.35
2019-03-28T01:35:31.782Z,18.52
2019-03-28T01:38:00.235Z,19.17
2019-03-28T01:40:29.062Z,20.88
2019-03-28T01:42:57.529Z,20.37
2019-03-28T01:45:25.984Z,20.12
2019-03-28T01:47:55.526Z,19.98
2019-03-28T01:50:23.990Z,18.62
2019-03-28T01:52:52.456Z,20.23
2019-03-28T01:55:21.225Z,21.20
2019-03-28T01:57:49.976Z,20.00
2019-03-28T02:00:18.426Z,19.37
2019-03-28T02:02:46.894Z,19.98
2019-03-28T02:05:15.429Z,18.55
2019-03-28T02:07:43.893Z,20.10
2019-03-28T02:10:13.230Z,20.20
2019-03-28T02:12:41.713Z,20.05
2019-03-28T02:15:10.250Z,19.02
2019-03-28T02:17:38.705Z,18.82
2019-03-28T02:20:07.656Z,19.90
2019-03-28T02:22:37.404Z,19.80
2019-03-28T02:25:06.945Z,21.10
2019-03-28T02:27:35.399Z,22.15
2019-03-28T02:30:05.406Z,19.55
2019-03-28T02:32:34.215Z,20.62
2019-03-28T02:35:03.745Z,19.67
2019-03-28T02:37:32.252Z,19.65
2019-03-28T02:40:00.694Z,18.50
2019-03-28T02:42:29.158Z,19.32
2019-03-28T02:44:57.644Z,19.52
2019-03-28T02:47:26.102Z,20.65
2019-03-28T02:49:54.556Z,20.50
2019-03-28T02:52:23.025Z,20.00
2019-03-28T02:54:51.483Z,19.70
2019-03-28T02:57:19.954Z,20.52
2019-03-28T02:59:48.434Z,20.82
2019-03-28T03:02:16.896Z,19.30
2019-03-28T03:04:45.440Z,20.52
2019-03-28T03:07:13.981Z,20.30
2019-03-28T03:09:44.083Z,20.92
2019-03-28T03:12:12.859Z,21.23
2019-03-28T03:14:41.307Z,20.20
2019-03-28T03:17:09.770Z,19.42
2019-03-28T03:19:38.241Z,19.15
2019-03-28T03:22:06.695Z,19.87
2019-03-28T03:24:35.154Z,20.27
2019-03-28T03:27:03.631Z,21.93
2019-03-28T03:29:32.103Z,20.72
2019-03-28T03:32:02.687Z,22.40
2019-03-28T03:34:32.741Z,20.27
2019-03-28T03:37:01.354Z,21.62
2019-03-28T03:39:29.853Z,20.75
2019-03-28T03:41:58.315Z,19.95
2019-03-28T03:44:26.853Z,22.02
2019-03-28T03:46:55.311Z,20.20
2019-03-28T03:49:23.783Z,20.95
2019-03-28T03:51:52.241Z,22.32
2019-03-28T03:54:20.985Z,21.42
2019-03-28T03:56:51.712Z,21.45
2019-03-28T03:59:20.819Z,20.60
2019-03-28T04:01:49.349Z,20.40
2019-03-28T04:04:17.825Z,21.30
2019-03-28T04:06:47.360Z,21.45
2019-03-28T04:09:17.429Z,23.80
2019-03-28T04:11:45.893Z,22.48
2019-03-28T04:14:14.372Z,21.68
2019-03-28T04:16:42.841Z,20.32
2019-03-28T04:19:11.312Z,19.30
2019-03-28T04:21:39.780Z,22.67
2019-03-28T04:24:09.218Z,20.25
2019-03-28T04:26:37.679Z,20.30
2019-03-28T04:29:06.151Z,21.50
2019-03-28T04:31:34.605Z,22.05
2019-03-28T04:34:07.429Z,21.27
2019-03-28T04:36:33.401Z,19.92
2019-03-28T04:39:01.874Z,22.42
2019-03-28T04:41:30.801Z,21.45
2019-03-28T04:43:59.263Z,21.25
2019-03-28T04:46:27.725Z,21.33
2019-03-28T04:48:56.175Z,22.15
2019-03-28T04:51:24.637Z,22.62
2019-03-28T04:53:56.226Z,21.90
2019-03-28T04:56:23.601Z,25.33
2019-03-28T04:58:52.053Z,23.57
2019-03-28T05:01:20.527Z,22.65
2019-03-28T05:03:49.448Z,23.27
2019-03-28T05:06:18.330Z,22.07
2019-03-28T05:08:46.806Z,23.35
2019-03-28T05:11:15.261Z,22.25
2019-03-28T05:13:43.735Z,24.23
2019-03-28T05:16:12.190Z,22.45
2019-03-28T05:18:40.658Z,23.30
2019-03-28T05:21:09.125Z,23.67
2019-03-28T05:23:37.588Z,23.95
2019-03-28T05:26:06.046Z,22.67
2019-03-28T05:28:34.514Z,23.50
2019-03-28T05:31:02.978Z,22.95
2019-03-28T05:33:31.784Z,22.55
2019-03-28T05:36:04.336Z,24.27
2019-03-28T05:38:31.755Z,24.25
2019-03-28T05:41:00.218Z,24.45
2019-03-28T05:43:28.695Z,22.20
2019-03-28T05:45:57.152Z,25.35
2019-03-28T05:48:25.629Z,22.90
2019-03-28T05:50:54.089Z,24.10
2019-03-28T05:53:22.568Z,24.95
2019-03-28T05:55:51.092Z,23.87
2019-03-28T05:58:19.558Z,23.00
2019-03-28T06:00:51.161Z,23.32
2019-03-28T06:03:18.183Z,22.65
2019-03-28T06:05:46.653Z,25.10
2019-03-28T06:08:15.118Z,21.85
2019-03-28T06:10:43.566Z,23.00
2019-03-28T06:13:12.035Z,22.50
2019-03-28T06:15:41.205Z,24.27
2019-03-28T06:18:09.841Z,23.57
2019-03-28T06:20:38.298Z,25.32
2019-03-28T06:23:08.374Z,25.32
2019-03-28T06:25:40.803Z,23.45
2019-03-28T06:28:07.303Z,23.80
2019-03-28T06:30:35.753Z,22.58
2019-03-28T06:33:04.466Z,23.25
2019-03-28T06:35:34.005Z,22.37
2019-03-28T06:38:02.478Z,23.10
2019-03-28T06:40:31.445Z,24.70
2019-03-28T06:43:00.162Z,24.77
2019-03-28T06:45:28.633Z,22.90
2019-03-28T06:47:57.095Z,24.18
2019-03-28T06:50:25.553Z,26.12
2019-03-28T06:52:54.011Z,22.52
2019-03-28T06:55:24.046Z,22.93
2019-03-28T06:57:52.825Z,24.95
2019-03-28T07:00:22.760Z,26.33
2019-03-28T07:02:51.231Z,26.70
2019-03-28T07:05:19.694Z,23.38
2019-03-28T07:07:49.677Z,23.80
2019-03-28T07:10:18.148Z,23.15
2019-03-28T07:12:46.621Z,22.90
2019-03-28T07:15:15.153Z,23.02
2019-03-28T07:17:43.630Z,24.57
2019-03-28T07:20:12.155Z,25.15
2019-03-28T07:22:40.622Z,25.55
2019-03-28T07:25:09.149Z,21.77
2019-03-28T07:27:38.783Z,21.40
2019-03-28T07:30:09.901Z,22.42
2019-03-28T07:32:38.515Z,22.80
2019-03-28T07:35:07.274Z,22.67
2019-03-28T07:37:37.199Z,23.87
2019-03-28T07:40:06.469Z,21.20
2019-03-28T07:42:34.933Z,21.77
2019-03-28T07:45:04.768Z,20.40
2019-03-28T07:47:33.507Z,18.60
2019-03-28T07:50:01.957Z,19.77
2019-03-28T07:52:30.908Z,18.75
2019-03-28T07:54:59.376Z,18.65
2019-03-28T07:57:27.842Z,18.02
2019-03-28T08:00:04.054Z,18.10
2019-03-28T08:02:26.498Z,20.35
2019-03-28T08:04:54.962Z,20.35
2019-03-28T08:07:23.436Z,18.48
2019-03-28T08:09:51.898Z,16.30
2019-03-28T08:12:22.969Z,16.75
2019-03-28T08:14:51.388Z,15.75
2019-03-28T08:17:21.301Z,16.07
2019-03-28T08:19:49.834Z,17.00
2019-03-28T08:22:18.290Z,15.60
2019-03-28T08:24:46.755Z,16.55
2019-03-28T08:27:15.243Z,14.03
2019-03-28T08:29:43.755Z,16.00
2019-03-28T08:32:13.878Z,14.45
2019-03-28T08:34:42.346Z,14.55
2019-03-28T08:37:11.685Z,13.53
2019-03-28T08:39:40.413Z,15.95
2019-03-28T08:42:08.866Z,15.88
2019-03-28T08:44:37.920Z,16.30
2019-03-28T08:47:07.266Z,16.23
2019-03-28T08:49:35.732Z,15.50
2019-03-28T08:52:04.200Z,16.17
2019-03-28T08:54:32.660Z,16.45
2019-03-28T08:57:01.110Z,13.88
2019-03-28T08:59:29.650Z,13.78
2019-03-28T09:01:58.108Z,11.95
2019-03-28T09:04:26.648Z,11.50
2019-03-28T09:06:55.111Z,11.88
2019-03-28T09:09:23.569Z,12.37
2019-03-28T09:11:52.025Z,12.78
2019-03-28T09:14:20.498Z,13.25
2019-03-28T09:16:48.967Z,11.12
2019-03-28T09:19:17.410Z,11.35
2019-03-28T09:21:45.881Z,12.13
2019-03-28T09:24:14.346Z,10.18
2019-03-28T09:26:42.824Z,12.10
2019-03-28T09:29:14.000Z,12.37
2019-03-28T09:31:42.472Z,12.60
2019-03-28T09:34:10.917Z,9.45
2019-03-28T09:36:39.369Z,7.95
2019-03-28T09:39:08.971Z,7.65
2019-03-28T09:41:37.417Z,8.45
2019-03-28T09:44:05.882Z,8.53
2019-03-28T09:46:34.418Z,9.40
2019-03-28T09:49:02.867Z,8.70
2019-03-28T09:51:31.330Z,9.58
2019-03-28T09:54:01.385Z,9.98
2019-03-28T09:56:29.836Z,9.90
2019-03-28T09:59:00.335Z,9.55
2019-03-28T10:01:28.530Z,8.93
2019-03-28T10:03:56.987Z,11.33
2019-03-28T10:06:25.454Z,9.50
2019-03-28T10:08:53.919Z,9.83
2019-03-28T10:11:22.380Z,9.58
2019-03-28T10:13:50.833Z,9.00
2019-03-28T10:16:19.278Z,8.83
2019-03-28T10:18:47.738Z,8.63
2019-03-28T10:21:16.192Z,8.73
2019-03-28T10:23:44.645Z,8.80
2019-03-28T10:26:13.125Z,6.42
2019-03-28T10:28:41.583Z,10.23
2019-03-28T10:31:16.306Z,8.43
2019-03-28T10:33:40.198Z,9.23
2019-03-28T10:36:08.664Z,9.93
2019-03-28T10:38:37.291Z,9.53
2019-03-28T10:41:05.822Z,10.38
2019-03-28T10:43:34.284Z,9.28
2019-03-28T10:46:02.736Z,11.18
2019-03-28T10:48:32.467Z,10.08
2019-03-28T10:51:00.923Z,10.23
2019-03-28T10:53:30.252Z,10.08
2019-03-28T10:55:58.831Z,11.03
2019-03-28T10:58:27.877Z,9.83
2019-03-28T11:00:56.525Z,8.28
2019-03-28T11:03:25.330Z,7.35
2019-03-28T11:05:53.781Z,7.37
2019-03-28T11:08:22.252Z,6.15
2019-03-28T11:10:50.714Z,6.53
2019-03-28T11:13:19.210Z,6.90
2019-03-28T11:15:47.738Z,7.20
2019-03-28T11:18:16.202Z,6.50
2019-03-28T11:20:44.660Z,7.67
2019-03-28T11:23:13.114Z,8.10
2019-03-28T11:25:41.571Z,7.80
2019-03-28T11:28:10.042Z,8.65
2019-03-28T11:30:38.559Z,9.38
2019-03-28T11:33:07.094Z,9.28
2019-03-28T11:35:35.554Z,7.95
2019-03-28T11:38:04.014Z,8.38
2019-03-28T11:40:32.531Z,8.98
2019-03-28T11:43:00.998Z,8.58
2019-03-28T11:45:29.457Z,9.38
2019-03-28T11:47:59.509Z,7.92
2019-03-28T11:50:29.594Z,8.53
2019-03-28T11:52:58.055Z,8.85
2019-03-28T11:55:26.514Z,9.13
2019-03-28T11:57:56.535Z,8.93
2019-03-28T12:00:25.314Z,10.40
2019-03-28T12:02:53.766Z,8.93
2019-03-28T12:05:22.250Z,9.35
2019-03-28T12:07:50.703Z,9.78
2019-03-28T12:10:19.230Z,8.63
2019-03-28T12:12:47.689Z,8.03
2019-03-28T12:15:16.214Z,8.75
2019-03-28T12:17:44.665Z,7.33
2019-03-28T12:20:13.124Z,7.22
2019-03-28T12:22:41.573Z,7.60
2019-03-28T12:25:10.458Z,7.35
2019-03-28T12:27:40.097Z,7.30
2019-03-28T12:30:10.234Z,7.87
2019-03-28T12:32:39.354Z,9.30
2019-03-28T12:35:10.107Z,8.67
2019-03-28T12:37:39.729Z,8.63
2019-03-28T12:40:10.596Z,8.00
2019-03-28T12:42:39.067Z,7.53
2019-03-28T12:45:09.123Z,8.48
2019-03-28T12:47:42.659Z,9.08
2019-03-28T12:50:11.411Z,8.40
2019-03-28T12:52:39.869Z,7.97
2019-03-28T12:55:09.969Z,8.00
2019-03-28T12:57:38.434Z,8.03
2019-03-28T13:00:07.659Z,9.05
2019-03-28T13:02:36.115Z,9.48
2019-03-28T13:05:06.259Z,9.58
2019-03-28T13:07:34.726Z,8.90
2019-03-28T13:10:05.121Z,8.05
2019-03-28T13:12:33.659Z,8.10
2019-03-28T13:15:02.201Z,7.33
2019-03-28T13:17:31.085Z,6.83
2019-03-28T13:19:59.545Z,6.30
2019-03-28T13:22:28.561Z,6.00
2019-03-28T13:24:57.126Z,6.40
2019-03-28T13:27:25.554Z,6.55
2019-03-28T13:29:55.162Z,6.20
2019-03-28T13:32:23.749Z,6.60
2019-03-28T13:34:52.746Z,5.87
2019-03-28T13:37:21.472Z,6.03
2019-03-28T13:39:49.905Z,7.40
2019-03-28T13:42:18.331Z,7.08
2019-03-28T13:44:46.760Z,7.10
2019-03-28T13:47:15.205Z,7.08
2019-03-28T13:49:44.606Z,6.87
2019-03-28T13:52:13.132Z,7.17
2019-03-28T13:54:43.103Z,7.87
2019-03-28T13:57:11.538Z,7.40
2019-03-28T13:59:41.192Z,8.48
2019-03-28T14:02:09.628Z,7.28
2019-03-28T14:04:38.408Z,8.68
2019-03-28T14:07:06.844Z,7.62
2019-03-28T14:09:35.281Z,7.03
2019-03-28T14:12:05.412Z,7.17
2019-03-28T14:14:33.844Z,6.60
2019-03-28T14:17:02.274Z,6.58
2019-03-28T14:19:30.763Z,7.70
2019-03-28T14:21:59.210Z,7.45
2019-03-28T14:24:27.646Z,7.97
2019-03-28T14:26:56.073Z,9.10
2019-03-28T14:29:24.513Z,7.58
2019-03-28T14:31:52.942Z,7.10
2019-03-28T14:34:21.369Z,6.95
2019-03-28T14:36:49.806Z,6.45
2019-03-28T14:39:18.240Z,5.62
2019-03-28T14:41:47.552Z,5.90
2019-03-28T14:44:16.062Z,6.03
2019-03-28T14:46:44.477Z,7.05
2019-03-28T14:49:13.065Z,6.45
2019-03-28T14:51:41.720Z,5.90
2019-03-28T14:54:10.709Z,6.30
2019-03-28T14:56:40.052Z,7.75
2019-03-28T14:59:08.745Z,7.47
2019-03-28T15:01:37.184Z,7.00
2019-03-28T15:04:06.185Z,7.92
2019-03-28T15:06:37.536Z,7.25
2019-03-28T15:09:07.602Z,7.08
2019-03-28T15:11:36.024Z,6.58
2019-03-28T15:14:04.528Z,7.08
2019-03-28T15:16:32.969Z,6.83
2019-03-28T15:19:01.412Z,6.90
2019-03-28T15:21:30.908Z,6.72
2019-03-28T15:23:59.336Z,6.08
2019-03-28T15:26:30.253Z,6.72
2019-03-28T15:28:59.045Z,7.35
2019-03-28T15:31:27.473Z,7.08
2019-03-28T15:33:55.913Z,7.03
2019-03-28T15:36:24.355Z,7.78
2019-03-28T15:38:52.865Z,6.67
2019-03-28T15:41:21.299Z,6.22
2019-03-28T15:43:49.733Z,6.40
2019-03-28T15:46:18.172Z,8.78
2019-03-28T15:48:46.681Z,6.80
2019-03-28T15:51:15.122Z,6.90
2019-03-28T15:53:43.546Z,7.58
2019-03-28T15:56:11.978Z,7.30
2019-03-28T15:58:40.405Z,7.25
2019-03-28T16:01:08.840Z,7.08
2019-03-28T16:03:37.266Z,6.70
2019-03-28T16:06:05.706Z,7.53
2019-03-28T16:08:34.138Z,6.97
2019-03-28T16:11:02.578Z,8.40
2019-03-28T16:13:31.022Z,6.87
2019-03-28T16:15:59.457Z,7.33
2019-03-28T16:18:27.884Z,7.12
2019-03-28T16:20:56.335Z,7.25
2019-03-28T16:23:26.601Z,7.75
2019-03-28T16:25:55.949Z,7.05
2019-03-28T16:28:24.389Z,7.45
2019-03-28T16:30:52.814Z,7.53
2019-03-28T16:33:21.283Z,8.68
2019-03-28T16:35:49.789Z,7.83
2019-03-28T16:38:25.753Z,8.03
2019-03-28T16:41:15.459Z,7.95
2019-03-28T16:43:46.508Z,7.72
2019-03-28T16:46:15.838Z,8.70
2019-03-28T16:48:44.996Z,8.78
2019-03-28T16:51:13.421Z,9.10
2019-03-28T16:53:45.681Z,8.85
2019-03-28T16:56:15.558Z,8.33
2019-03-28T16:58:44.128Z,8.00
2019-03-28T17:01:12.568Z,8.58
2019-03-28T17:03:43.800Z,8.25
2019-03-28T17:06:14.982Z,8.25
2019-03-28T17:08:45.227Z,9.43
2019-03-28T17:11:13.659Z,9.35
2019-03-28T17:13:46.366Z,8.88
2019-03-28T17:16:14.741Z,9.63
2019-03-28T17:18:44.122Z,9.65
2019-03-28T17:21:15.117Z,8.40
2019-03-28T17:23:44.641Z,8.83
2019-03-28T17:26:13.140Z,12.23
2019-03-28T17:28:43.672Z,10.98
2019-03-28T17:31:13.238Z,10.43
2019-03-28T17:33:42.192Z,10.25
2019-03-28T17:36:10.636Z,11.60
2019-03-28T17:38:39.610Z,11.08
2019-03-28T17:41:08.190Z,11.95
2019-03-28T17:43:36.629Z,11.18
2019-03-28T17:46:05.133Z,12.58
2019-03-28T17:48:33.579Z,11.93
2019-03-28T17:51:02.016Z,11.95
2019-03-28T17:53:30.709Z,11.45
2019-03-28T17:55:59.210Z,12.80
2019-03-28T17:58:27.733Z,12.65
2019-03-28T18:00:56.165Z,12.00
2019-03-28T18:03:31.022Z,12.07
2019-03-28T18:05:58.423Z,12.10
2019-03-28T18:08:27.433Z,11.68
2019-03-28T18:10:55.966Z,12.18
2019-03-28T18:13:24.785Z,11.97
2019-03-28T18:15:53.217Z,12.88
2019-03-28T18:18:21.661Z,12.63
2019-03-28T18:20:50.097Z,12.70
2019-03-28T18:23:18.613Z,11.08
2019-03-28T18:25:47.066Z,13.30
2019-03-28T18:28:15.837Z,13.28
2019-03-28T18:30:44.293Z,12.15
2019-03-28T18:33:13.170Z,11.95
2019-03-28T18:35:41.617Z,12.58
2019-03-28T18:38:11.249Z,12.63
2019-03-28T18:40:39.674Z,12.50
2019-03-28T18:43:08.129Z,12.70
2019-03-28T18:45:36.558Z,12.75
2019-03-28T18:48:05.014Z,14.40
2019-03-28T18:50:34.097Z,13.38
2019-03-28T18:53:04.274Z,12.95
2019-03-28T18:55:34.807Z,11.80
2019-03-28T18:58:03.727Z,12.37
2019-03-28T19:00:32.217Z,11.45
2019-03-28T19:03:00.647Z,12.65
2019-03-28T19:05:29.097Z,14.20
2019-03-28T19:07:57.537Z,12.95
2019-03-28T19:10:26.065Z,13.95
2019-03-28T19:12:54.508Z,13.22
2019-03-28T19:15:23.728Z,13.03
2019-03-28T19:17:52.284Z,12.50
2019-03-28T19:20:20.976Z,12.63
2019-03-28T19:22:50.317Z,12.68
2019-03-28T19:25:19.038Z,12.28
2019-03-28T19:27:47.482Z,12.10
2019-03-28T19:30:17.465Z,11.68
2019-03-28T19:32:46.870Z,12.73
2019-03-28T19:35:15.301Z,13.78
2019-03-28T19:37:46.463Z,12.95
2019-03-28T19:40:16.149Z,15.15
2019-03-28T19:42:44.628Z,13.78
2019-03-28T19:45:14.622Z,15.03
2019-03-28T19:47:43.052Z,14.25
2019-03-28T19:50:13.030Z,13.83
2019-03-28T19:52:41.771Z,13.22
2019-03-28T19:55:11.728Z,13.45
2019-03-28T19:57:40.177Z,14.63
2019-03-28T20:00:11.101Z,13.20
2019-03-28T20:02:39.880Z,14.65
2019-03-28T20:05:08.485Z,14.58
2019-03-28T20:07:36.938Z,15.60
2019-03-28T20:10:15.822Z,15.10
2019-03-28T20:12:35.785Z,14.38
2019-03-28T20:15:05.502Z,19.05
2019-03-28T20:17:34.001Z,18.23
2019-03-28T20:20:02.450Z,15.78
2019-03-28T20:22:31.018Z,16.42
2019-03-28T20:25:02.698Z,15.80
2019-03-28T20:27:31.450Z,16.10
2019-03-28T20:30:00.899Z,16.48
2019-03-28T20:32:31.255Z,19.87
2019-03-28T20:35:01.598Z,17.05
2019-03-28T20:37:30.037Z,16.85
2019-03-28T20:39:58.775Z,17.48
2019-03-28T20:42:29.255Z,17.15
2019-03-28T20:44:57.921Z,16.62
2019-03-28T20:47:27.259Z,17.92
2019-03-28T20:49:56.751Z,16.48
2019-03-28T20:52:25.190Z,15.70
2019-03-28T20:54:53.639Z,17.25
2019-03-28T20:57:22.346Z,17.73
2019-03-28T20:59:55.411Z,17.37
2019-03-28T21:02:25.553Z,17.37
2019-03-28T21:04:54.565Z,16.93
2019-03-28T21:07:23.018Z,17.62
2019-03-28T21:09:51.447Z,19.23
2019-03-28T21:12:19.873Z,18.57
2019-03-28T21:14:48.389Z,18.92
2019-03-28T21:17:16.829Z,19.35
2019-03-28T21:19:45.375Z,18.32
2019-03-28T21:22:13.858Z,20.02
2019-03-28T21:24:42.380Z,18.90
2019-03-28T21:27:10.818Z,19.17
2019-03-28T21:29:48.710Z,20.40
2019-03-28T21:32:09.470Z,21.25
2019-03-28T21:34:37.896Z,20.70
2019-03-28T21:37:06.843Z,22.15
2019-03-28T21:39:39.787Z,24.10
2019-03-28T21:42:07.294Z,23.73
2019-03-28T21:44:41.751Z,23.07
2019-03-28T21:47:10.198Z,21.48
2019-03-28T21:49:38.628Z,20.20
2019-03-28T21:52:07.623Z,21.62
2019-03-28T21:54:36.407Z,21.90
2019-03-28T21:57:04.863Z,22.50
2019-03-28T21:59:33.344Z,22.82
2019-03-28T22:02:01.798Z,21.48
2019-03-28T22:04:30.230Z,23.25
2019-03-28T22:06:58.661Z,21.30
2019-03-28T22:09:27.089Z,21.00
2019-03-28T22:11:55.539Z,20.75
2019-03-28T22:14:23.964Z,21.27
2019-03-28T22:16:52.403Z,22.85
2019-03-28T22:19:20.837Z,24.05
2019-03-28T22:21:49.377Z,25.60
2019-03-28T22:24:17.817Z,25.15
2019-03-28T22:26:47.884Z,27.22
2019-03-28T22:29:16.327Z,26.62
2019-03-28T22:31:44.770Z,24.30
2019-03-28T22:34:13.213Z,26.07
2019-03-28T22:36:41.659Z,26.52
2019-03-28T22:39:12.162Z,26.77
2019-03-28T22:41:41.450Z,27.73
2019-03-28T22:44:09.890Z,24.47
2019-03-28T22:46:39.718Z,24.75
2019-03-28T22:49:08.451Z,25.62
2019-03-28T22:51:36.891Z,24.20
2019-03-28T22:54:05.337Z,22.35
2019-03-28T22:56:33.853Z,23.75
2019-03-28T22:59:03.010Z,24.05
2019-03-28T23:01:32.356Z,22.40
2019-03-28T23:04:00.797Z,23.20
2019-03-28T23:06:29.245Z,23.62
2019-03-28T23:08:58.300Z,22.15
2019-03-28T23:11:27.505Z,23.30
2019-03-28T23:13:55.938Z,23.65
2019-03-28T23:16:24.397Z,23.70
2019-03-28T23:18:52.834Z,23.10
2019-03-28T23:21:21.268Z,21.62
2019-03-28T23:23:49.713Z,22.00
2019-03-28T23:26:18.154Z,22.07
2019-03-28T23:28:46.593Z,21.50
2019-03-28T23:31:15.108Z,20.57
2019-03-28T23:33:43.627Z,19.82
2019-03-28T23:36:12.140Z,19.20
2019-03-28T23:38:40.587Z,20.90
2019-03-28T23:41:09.029Z,21.07
2019-03-28T23:43:37.469Z,19.57
2019-03-28T23:46:05.911Z,20.20
2019-03-28T23:48:34.354Z,18.73
2019-03-28T23:51:02.789Z,18.60
2019-03-28T23:53:31.373Z,17.50
2019-03-28T23:56:00.982Z,17.73
2019-03-28T23:58:29.426Z,17.82
